sensor_id;sensor_type;location;lat;lon;timestamp;P1;durP1;ratioP1;P2;durP2;ratioP2
14611;SDS011;7392;52.078;11.650;2023-05-13T00:00:43;1.30;;;1.20;;
14611;SDS011;7392;52.078;11.650;2023-05-13T00:03:11;1.30;;;1.00;;
14611;SDS011;7392;52.078;11.650;2023-05-13T00:05:40;1.20;;;1.10;;
14611;SDS011;7392;52.078;11.650;2023-05-13T00:08:08;1.47;;;1.37;;
14611;SDS011;7392;52.078;11.650;2023-05-13T00:10:37;1.40;;;1.30;;
14611;SDS011;7392;52.078;11.650;2023-05-13T00:13:04;1.47;;;1.37;;
14611;SDS011;7392;52.078;11.650;2023-05-13T00:15:33;1.37;;;1.27;;
14611;SDS011;7392;52.078;11.650;2023-05-13T00:18:01;1.70;;;1.40;;
14611;SDS011;7392;52.078;11.650;2023-05-13T00:20:29;1.20;;;1.10;;
14611;SDS011;7392;52.078;11.650;2023-05-13T00:22:58;1.40;;;1.30;;
14611;SDS011;7392;52.078;11.650;2023-05-13T00:25:26;1.40;;;1.30;;
14611;SDS011;7392;52.078;11.650;2023-05-13T00:27:53;1.63;;;1.30;;
14611;SDS011;7392;52.078;11.650;2023-05-13T00:30:21;1.90;;;1.20;;
14611;SDS011;7392;52.078;11.650;2023-05-13T00:32:49;1.40;;;1.30;;
14611;SDS011;7392;52.078;11.650;2023-05-13T00:35:17;1.23;;;1.10;;
14611;SDS011;7392;52.078;11.650;2023-05-13T00:37:45;1.40;;;1.30;;
14611;SDS011;7392;52.078;11.650;2023-05-13T00:40:16;1.20;;;1.10;;
14611;SDS011;7392;52.078;11.650;2023-05-13T00:42:47;1.17;;;1.07;;
14611;SDS011;7392;52.078;11.650;2023-05-13T00:45:15;1.17;;;1.00;;
14611;SDS011;7392;52.078;11.650;2023-05-13T00:47:43;1.27;;;1.17;;
14611;SDS011;7392;52.078;11.650;2023-05-13T00:50:11;0.90;;;0.90;;
14611;SDS011;7392;52.078;11.650;2023-05-13T00:52:40;1.67;;;1.30;;
14611;SDS011;7392;52.078;11.650;2023-05-13T00:55:09;1.70;;;1.40;;
14611;SDS011;7392;52.078;11.650;2023-05-13T00:57:39;1.10;;;1.00;;
14611;SDS011;7392;52.078;11.650;2023-05-13T01:00:07;1.00;;;1.00;;
14611;SDS011;7392;52.078;11.650;2023-05-13T01:02:38;1.40;;;1.20;;
14611;SDS011;7392;52.078;11.650;2023-05-13T01:05:14;1.30;;;1.20;;
14611;SDS011;7392;52.078;11.650;2023-05-13T01:07:48;1.37;;;1.27;;
14611;SDS011;7392;52.078;11.650;2023-05-13T01:10:25;1.50;;;1.40;;
14611;SDS011;7392;52.078;11.650;2023-05-13T01:13:03;1.30;;;1.20;;
14611;SDS011;7392;52.078;11.650;2023-05-13T01:15:37;1.30;;;1.20;;
14611;SDS011;7392;52.078;11.650;2023-05-13T01:18:09;1.30;;;1.10;;
14611;SDS011;7392;52.078;11.650;2023-05-13T01:20:41;1.20;;;1.10;;
14611;SDS011;7392;52.078;11.650;2023-05-13T01:23:10;1.33;;;1.23;;
14611;SDS011;7392;52.078;11.650;2023-05-13T01:25:39;1.60;;;1.50;;
14611;SDS011;7392;52.078;11.650;2023-05-13T01:28:07;1.20;;;1.10;;
14611;SDS011;7392;52.078;11.650;2023-05-13T01:30:38;1.37;;;1.27;;
14611;SDS011;7392;52.078;11.650;2023-05-13T01:33:25;1.40;;;1.20;;
14611;SDS011;7392;52.078;11.650;2023-05-13T01:35:53;1.53;;;1.33;;
14611;SDS011;7392;52.078;11.650;2023-05-13T01:38:23;1.27;;;1.17;;
14611;SDS011;7392;52.078;11.650;2023-05-13T01:40:55;1.30;;;1.20;;
14611;SDS011;7392;52.078;11.650;2023-05-13T01:43:26;1.20;;;1.10;;
14611;SDS011;7392;52.078;11.650;2023-05-13T01:45:53;1.50;;;1.40;;
14611;SDS011;7392;52.078;11.650;2023-05-13T01:48:22;1.53;;;1.13;;
14611;SDS011;7392;52.078;11.650;2023-05-13T01:50:50;1.20;;;1.10;;
14611;SDS011;7392;52.078;11.650;2023-05-13T01:53:18;1.17;;;1.07;;
14611;SDS011;7392;52.078;11.650;2023-05-13T01:55:50;1.27;;;1.17;;
14611;SDS011;7392;52.078;11.650;2023-05-13T01:58:19;1.13;;;1.03;;
14611;SDS011;7392;52.078;11.650;2023-05-13T02:00:47;1.10;;;1.00;;
14611;SDS011;7392;52.078;11.650;2023-05-13T02:03:16;1.40;;;1.30;;
14611;SDS011;7392;52.078;11.650;2023-05-13T02:05:45;1.13;;;1.03;;
14611;SDS011;7392;52.078;11.650;2023-05-13T02:08:12;1.10;;;1.00;;
14611;SDS011;7392;52.078;11.650;2023-05-13T02:10:40;1.27;;;1.17;;
14611;SDS011;7392;52.078;11.650;2023-05-13T02:13:09;1.60;;;1.50;;
14611;SDS011;7392;52.078;11.650;2023-05-13T02:15:37;1.30;;;1.20;;
14611;SDS011;7392;52.078;11.650;2023-05-13T02:18:05;1.53;;;1.43;;
14611;SDS011;7392;52.078;11.650;2023-05-13T02:20:33;1.43;;;1.33;;
14611;SDS011;7392;52.078;11.650;2023-05-13T02:23:00;1.87;;;1.50;;
14611;SDS011;7392;52.078;11.650;2023-05-13T02:25:28;1.40;;;1.30;;
14611;SDS011;7392;52.078;11.650;2023-05-13T02:27:57;1.33;;;1.23;;
14611;SDS011;7392;52.078;11.650;2023-05-13T02:33:05;1.50;;;1.40;;
14611;SDS011;7392;52.078;11.650;2023-05-13T02:35:33;1.33;;;1.23;;
14611;SDS011;7392;52.078;11.650;2023-05-13T02:38:01;2.23;;;1.47;;
14611;SDS011;7392;52.078;11.650;2023-05-13T02:40:32;1.43;;;1.30;;
14611;SDS011;7392;52.078;11.650;2023-05-13T02:43:00;1.60;;;1.50;;
14611;SDS011;7392;52.078;11.650;2023-05-13T02:45:41;1.50;;;1.40;;
14611;SDS011;7392;52.078;11.650;2023-05-13T02:48:11;1.40;;;1.30;;
14611;SDS011;7392;52.078;11.650;2023-05-13T02:50:39;1.20;;;1.10;;
14611;SDS011;7392;52.078;11.650;2023-05-13T02:53:08;1.50;;;1.40;;
14611;SDS011;7392;52.078;11.650;2023-05-13T02:55:40;1.43;;;1.33;;
14611;SDS011;7392;52.078;11.650;2023-05-13T02:58:08;1.40;;;1.30;;
14611;SDS011;7392;52.078;11.650;2023-05-13T03:00:36;1.40;;;1.30;;
14611;SDS011;7392;52.078;11.650;2023-05-13T03:03:03;1.50;;;1.30;;
14611;SDS011;7392;52.078;11.650;2023-05-13T03:05:32;1.40;;;1.30;;
14611;SDS011;7392;52.078;11.650;2023-05-13T03:08:00;1.50;;;1.40;;
14611;SDS011;7392;52.078;11.650;2023-05-13T03:10:27;1.30;;;1.20;;
14611;SDS011;7392;52.078;11.650;2023-05-13T03:12:55;1.60;;;1.50;;
14611;SDS011;7392;52.078;11.650;2023-05-13T03:15:23;1.43;;;1.30;;
14611;SDS011;7392;52.078;11.650;2023-05-13T03:17:51;1.40;;;1.30;;
14611;SDS011;7392;52.078;11.650;2023-05-13T03:20:19;1.40;;;1.30;;
14611;SDS011;7392;52.078;11.650;2023-05-13T03:22:49;1.43;;;1.33;;
14611;SDS011;7392;52.078;11.650;2023-05-13T03:25:16;1.43;;;1.33;;
14611;SDS011;7392;52.078;11.650;2023-05-13T03:27:49;1.77;;;1.20;;
14611;SDS011;7392;52.078;11.650;2023-05-13T03:30:19;1.23;;;1.13;;
14611;SDS011;7392;52.078;11.650;2023-05-13T03:32:58;1.37;;;1.27;;
14611;SDS011;7392;52.078;11.650;2023-05-13T03:35:26;1.43;;;1.33;;
14611;SDS011;7392;52.078;11.650;2023-05-13T03:37:55;1.40;;;1.30;;
14611;SDS011;7392;52.078;11.650;2023-05-13T03:40:24;1.87;;;1.33;;
14611;SDS011;7392;52.078;11.650;2023-05-13T03:42:51;1.50;;;1.40;;
14611;SDS011;7392;52.078;11.650;2023-05-13T03:45:21;1.50;;;1.40;;
14611;SDS011;7392;52.078;11.650;2023-05-13T03:47:51;1.30;;;1.20;;
14611;SDS011;7392;52.078;11.650;2023-05-13T03:50:21;1.97;;;1.50;;
14611;SDS011;7392;52.078;11.650;2023-05-13T03:52:50;1.40;;;1.30;;
14611;SDS011;7392;52.078;11.650;2023-05-13T03:55:21;1.50;;;1.40;;
14611;SDS011;7392;52.078;11.650;2023-05-13T03:57:49;1.30;;;1.20;;
14611;SDS011;7392;52.078;11.650;2023-05-13T04:00:19;1.23;;;1.10;;
14611;SDS011;7392;52.078;11.650;2023-05-13T04:02:47;1.77;;;1.63;;
14611;SDS011;7392;52.078;11.650;2023-05-13T04:05:15;2.10;;;1.60;;
14611;SDS011;7392;52.078;11.650;2023-05-13T04:07:44;1.37;;;1.27;;
14611;SDS011;7392;52.078;11.650;2023-05-13T04:10:12;1.67;;;1.57;;
14611;SDS011;7392;52.078;11.650;2023-05-13T04:12:42;1.90;;;1.43;;
14611;SDS011;7392;52.078;11.650;2023-05-13T04:15:10;1.70;;;1.60;;
14611;SDS011;7392;52.078;11.650;2023-05-13T04:17:38;1.70;;;1.60;;
14611;SDS011;7392;52.078;11.650;2023-05-13T04:20:06;1.30;;;1.20;;
14611;SDS011;7392;52.078;11.650;2023-05-13T04:22:34;1.40;;;1.30;;
14611;SDS011;7392;52.078;11.650;2023-05-13T04:25:02;1.50;;;1.40;;
14611;SDS011;7392;52.078;11.650;2023-05-13T04:27:30;1.63;;;1.53;;
14611;SDS011;7392;52.078;11.650;2023-05-13T04:30:09;2.63;;;1.53;;
14611;SDS011;7392;52.078;11.650;2023-05-13T04:32:38;1.53;;;1.43;;
14611;SDS011;7392;52.078;11.650;2023-05-13T04:35:08;1.63;;;1.53;;
14611;SDS011;7392;52.078;11.650;2023-05-13T04:37:36;1.60;;;1.50;;
14611;SDS011;7392;52.078;11.650;2023-05-13T04:40:06;1.60;;;1.50;;
14611;SDS011;7392;52.078;11.650;2023-05-13T04:42:35;1.60;;;1.50;;
14611;SDS011;7392;52.078;11.650;2023-05-13T04:45:03;1.67;;;1.57;;
14611;SDS011;7392;52.078;11.650;2023-05-13T04:47:32;1.60;;;1.50;;
14611;SDS011;7392;52.078;11.650;2023-05-13T04:50:00;1.67;;;1.57;;
14611;SDS011;7392;52.078;11.650;2023-05-13T04:52:30;1.67;;;1.57;;
14611;SDS011;7392;52.078;11.650;2023-05-13T04:54:58;1.67;;;1.57;;
14611;SDS011;7392;52.078;11.650;2023-05-13T04:57:27;1.53;;;1.43;;
14611;SDS011;7392;52.078;11.650;2023-05-13T04:59:55;2.20;;;1.60;;
14611;SDS011;7392;52.078;11.650;2023-05-13T05:02:23;1.90;;;1.63;;
14611;SDS011;7392;52.078;11.650;2023-05-13T05:04:54;1.40;;;1.30;;
14611;SDS011;7392;52.078;11.650;2023-05-13T05:07:22;1.80;;;1.60;;
14611;SDS011;7392;52.078;11.650;2023-05-13T05:09:50;1.73;;;1.60;;
14611;SDS011;7392;52.078;11.650;2023-05-13T05:12:18;2.10;;;1.93;;
14611;SDS011;7392;52.078;11.650;2023-05-13T05:14:46;2.90;;;1.83;;
14611;SDS011;7392;52.078;11.650;2023-05-13T05:17:14;2.00;;;1.80;;
14611;SDS011;7392;52.078;11.650;2023-05-13T05:19:42;1.93;;;1.70;;
14611;SDS011;7392;52.078;11.650;2023-05-13T05:22:11;2.60;;;2.03;;
14611;SDS011;7392;52.078;11.650;2023-05-13T05:24:38;1.80;;;1.70;;
14611;SDS011;7392;52.078;11.650;2023-05-13T05:27:07;2.00;;;1.83;;
14611;SDS011;7392;52.078;11.650;2023-05-13T05:29:35;2.00;;;1.80;;
14611;SDS011;7392;52.078;11.650;2023-05-13T05:32:03;2.00;;;1.70;;
14611;SDS011;7392;52.078;11.650;2023-05-13T05:34:32;1.60;;;1.50;;
14611;SDS011;7392;52.078;11.650;2023-05-13T05:37:00;1.77;;;1.57;;
14611;SDS011;7392;52.078;11.650;2023-05-13T05:39:31;2.10;;;1.90;;
14611;SDS011;7392;52.078;11.650;2023-05-13T05:42:00;2.67;;;2.10;;
14611;SDS011;7392;52.078;11.650;2023-05-13T05:44:28;1.87;;;1.67;;
14611;SDS011;7392;52.078;11.650;2023-05-13T05:46:56;2.33;;;2.13;;
14611;SDS011;7392;52.078;11.650;2023-05-13T05:49:23;2.13;;;1.90;;
14611;SDS011;7392;52.078;11.650;2023-05-13T05:51:51;2.07;;;1.70;;
14611;SDS011;7392;52.078;11.650;2023-05-13T05:54:19;2.20;;;2.00;;
14611;SDS011;7392;52.078;11.650;2023-05-13T05:56:48;1.90;;;1.80;;
14611;SDS011;7392;52.078;11.650;2023-05-13T05:59:16;2.17;;;1.97;;
14611;SDS011;7392;52.078;11.650;2023-05-13T06:01:43;1.70;;;1.60;;
14611;SDS011;7392;52.078;11.650;2023-05-13T06:04:11;2.20;;;2.00;;
14611;SDS011;7392;52.078;11.650;2023-05-13T06:06:39;1.90;;;1.80;;
14611;SDS011;7392;52.078;11.650;2023-05-13T06:09:07;2.30;;;2.10;;
14611;SDS011;7392;52.078;11.650;2023-05-13T06:11:34;2.20;;;2.00;;
14611;SDS011;7392;52.078;11.650;2023-05-13T06:14:03;2.07;;;1.87;;
14611;SDS011;7392;52.078;11.650;2023-05-13T06:16:31;2.17;;;1.97;;
14611;SDS011;7392;52.078;11.650;2023-05-13T06:18:59;2.30;;;2.10;;
14611;SDS011;7392;52.078;11.650;2023-05-13T06:21:26;2.30;;;2.10;;
14611;SDS011;7392;52.078;11.650;2023-05-13T06:23:54;2.13;;;1.93;;
14611;SDS011;7392;52.078;11.650;2023-05-13T06:26:21;2.67;;;2.47;;
14611;SDS011;7392;52.078;11.650;2023-05-13T06:28:49;4.00;;;2.70;;
14611;SDS011;7392;52.078;11.650;2023-05-13T06:31:18;2.90;;;2.60;;
14611;SDS011;7392;52.078;11.650;2023-05-13T06:33:45;2.47;;;2.27;;
14611;SDS011;7392;52.078;11.650;2023-05-13T06:36:13;2.60;;;2.40;;
14611;SDS011;7392;52.078;11.650;2023-05-13T06:38:41;2.63;;;2.33;;
14611;SDS011;7392;52.078;11.650;2023-05-13T06:41:09;2.27;;;2.07;;
14611;SDS011;7392;52.078;11.650;2023-05-13T06:43:37;2.30;;;2.10;;
14611;SDS011;7392;52.078;11.650;2023-05-13T06:46:12;3.10;;;2.50;;
14611;SDS011;7392;52.078;11.650;2023-05-13T06:48:41;2.40;;;2.20;;
14611;SDS011;7392;52.078;11.650;2023-05-13T06:51:09;2.33;;;2.07;;
14611;SDS011;7392;52.078;11.650;2023-05-13T06:53:36;2.30;;;2.10;;
14611;SDS011;7392;52.078;11.650;2023-05-13T06:56:05;2.37;;;2.17;;
14611;SDS011;7392;52.078;11.650;2023-05-13T06:58:33;2.37;;;2.00;;
14611;SDS011;7392;52.078;11.650;2023-05-13T07:01:00;2.17;;;1.97;;
14611;SDS011;7392;52.078;11.650;2023-05-13T07:03:28;3.07;;;1.93;;
14611;SDS011;7392;52.078;11.650;2023-05-13T07:05:57;2.10;;;1.90;;
14611;SDS011;7392;52.078;11.650;2023-05-13T07:08:25;1.80;;;1.70;;
14611;SDS011;7392;52.078;11.650;2023-05-13T07:10:53;2.50;;;2.13;;
14611;SDS011;7392;52.078;11.650;2023-05-13T07:13:20;2.40;;;2.20;;
14611;SDS011;7392;52.078;11.650;2023-05-13T07:15:49;1.90;;;1.80;;
14611;SDS011;7392;52.078;11.650;2023-05-13T07:18:17;2.20;;;2.00;;
14611;SDS011;7392;52.078;11.650;2023-05-13T07:20:45;2.30;;;2.10;;
14611;SDS011;7392;52.078;11.650;2023-05-13T07:23:14;2.53;;;2.30;;
14611;SDS011;7392;52.078;11.650;2023-05-13T07:25:42;3.63;;;2.60;;
14611;SDS011;7392;52.078;11.650;2023-05-13T07:28:09;4.47;;;3.80;;
14611;SDS011;7392;52.078;11.650;2023-05-13T07:30:38;3.50;;;3.13;;
14611;SDS011;7392;52.078;11.650;2023-05-13T07:33:06;3.90;;;3.20;;
14611;SDS011;7392;52.078;11.650;2023-05-13T07:35:34;3.70;;;3.27;;
14611;SDS011;7392;52.078;11.650;2023-05-13T07:38:02;3.30;;;3.00;;
14611;SDS011;7392;52.078;11.650;2023-05-13T07:40:31;3.77;;;2.93;;
14611;SDS011;7392;52.078;11.650;2023-05-13T07:42:59;3.83;;;3.10;;
14611;SDS011;7392;52.078;11.650;2023-05-13T07:45:27;4.10;;;2.80;;
14611;SDS011;7392;52.078;11.650;2023-05-13T07:47:54;3.20;;;2.87;;
14611;SDS011;7392;52.078;11.650;2023-05-13T07:50:22;3.50;;;3.10;;
14611;SDS011;7392;52.078;11.650;2023-05-13T07:52:50;4.80;;;2.87;;
14611;SDS011;7392;52.078;11.650;2023-05-13T07:55:18;2.77;;;2.50;;
14611;SDS011;7392;52.078;11.650;2023-05-13T07:57:48;2.70;;;2.50;;
14611;SDS011;7392;52.078;11.650;2023-05-13T08:00:16;3.10;;;2.80;;
14611;SDS011;7392;52.078;11.650;2023-05-13T08:02:44;3.17;;;2.17;;
14611;SDS011;7392;52.078;11.650;2023-05-13T08:05:12;3.00;;;2.57;;
14611;SDS011;7392;52.078;11.650;2023-05-13T08:07:39;2.63;;;2.43;;
14611;SDS011;7392;52.078;11.650;2023-05-13T08:10:07;2.60;;;2.40;;
14611;SDS011;7392;52.078;11.650;2023-05-13T08:12:35;4.73;;;3.50;;
14611;SDS011;7392;52.078;11.650;2023-05-13T08:15:07;3.70;;;3.40;;
14611;SDS011;7392;52.078;11.650;2023-05-13T08:17:37;3.00;;;2.70;;
14611;SDS011;7392;52.078;11.650;2023-05-13T08:20:05;3.50;;;2.60;;
14611;SDS011;7392;52.078;11.650;2023-05-13T08:22:33;4.30;;;2.60;;
14611;SDS011;7392;52.078;11.650;2023-05-13T08:25:01;2.77;;;2.30;;
14611;SDS011;7392;52.078;11.650;2023-05-13T08:27:29;3.00;;;2.70;;
14611;SDS011;7392;52.078;11.650;2023-05-13T08:29:57;3.90;;;2.50;;
14611;SDS011;7392;52.078;11.650;2023-05-13T08:32:26;3.37;;;2.73;;
14611;SDS011;7392;52.078;11.650;2023-05-13T08:34:53;2.47;;;2.27;;
14611;SDS011;7392;52.078;11.650;2023-05-13T08:37:21;4.10;;;2.00;;
14611;SDS011;7392;52.078;11.650;2023-05-13T08:39:48;2.20;;;2.00;;
14611;SDS011;7392;52.078;11.650;2023-05-13T08:42:16;1.93;;;1.80;;
14611;SDS011;7392;52.078;11.650;2023-05-13T08:44:47;3.03;;;2.13;;
14611;SDS011;7392;52.078;11.650;2023-05-13T08:47:18;5.33;;;2.00;;
14611;SDS011;7392;52.078;11.650;2023-05-13T08:49:54;3.60;;;2.00;;
14611;SDS011;7392;52.078;11.650;2023-05-13T08:52:22;2.80;;;2.10;;
14611;SDS011;7392;52.078;11.650;2023-05-13T08:54:51;3.80;;;2.10;;
14611;SDS011;7392;52.078;11.650;2023-05-13T08:57:20;2.13;;;1.93;;
14611;SDS011;7392;52.078;11.650;2023-05-13T08:59:48;3.73;;;2.00;;
14611;SDS011;7392;52.078;11.650;2023-05-13T09:02:16;2.70;;;2.10;;
14611;SDS011;7392;52.078;11.650;2023-05-13T09:04:44;2.30;;;2.00;;
14611;SDS011;7392;52.078;11.650;2023-05-13T09:07:14;2.13;;;1.93;;
14611;SDS011;7392;52.078;11.650;2023-05-13T09:09:42;1.93;;;1.73;;
14611;SDS011;7392;52.078;11.650;2023-05-13T09:12:10;2.00;;;1.80;;
14611;SDS011;7392;52.078;11.650;2023-05-13T09:14:37;3.30;;;2.13;;
14611;SDS011;7392;52.078;11.650;2023-05-13T09:17:07;4.13;;;2.10;;
14611;SDS011;7392;52.078;11.650;2023-05-13T09:19:35;4.10;;;2.00;;
14611;SDS011;7392;52.078;11.650;2023-05-13T09:22:04;4.33;;;1.90;;
14611;SDS011;7392;52.078;11.650;2023-05-13T09:24:51;4.40;;;2.30;;
14611;SDS011;7392;52.078;11.650;2023-05-13T09:27:36;2.40;;;1.83;;
14611;SDS011;7392;52.078;11.650;2023-05-13T09:30:06;3.73;;;1.73;;
14611;SDS011;7392;52.078;11.650;2023-05-13T09:32:34;3.23;;;1.70;;
14611;SDS011;7392;52.078;11.650;2023-05-13T09:35:09;2.73;;;2.00;;
14611;SDS011;7392;52.078;11.650;2023-05-13T09:37:46;2.23;;;1.93;;
14611;SDS011;7392;52.078;11.650;2023-05-13T09:40:15;4.47;;;1.90;;
14611;SDS011;7392;52.078;11.650;2023-05-13T09:42:44;2.80;;;1.97;;
14611;SDS011;7392;52.078;11.650;2023-05-13T09:45:13;2.80;;;1.80;;
14611;SDS011;7392;52.078;11.650;2023-05-13T09:47:42;2.60;;;2.00;;
14611;SDS011;7392;52.078;11.650;2023-05-13T09:50:10;2.03;;;1.73;;
14611;SDS011;7392;52.078;11.650;2023-05-13T09:52:38;1.83;;;1.73;;
14611;SDS011;7392;52.078;11.650;2023-05-13T09:55:08;2.80;;;1.90;;
14611;SDS011;7392;52.078;11.650;2023-05-13T09:57:36;3.07;;;1.93;;
14611;SDS011;7392;52.078;11.650;2023-05-13T10:00:06;1.70;;;1.60;;
14611;SDS011;7392;52.078;11.650;2023-05-13T10:02:50;5.18;;;1.98;;
14611;SDS011;7392;52.078;11.650;2023-05-13T10:05:18;2.70;;;1.93;;
14611;SDS011;7392;52.078;11.650;2023-05-13T10:07:46;4.90;;;1.70;;
14611;SDS011;7392;52.078;11.650;2023-05-13T10:10:16;2.67;;;1.90;;
14611;SDS011;7392;52.078;11.650;2023-05-13T10:12:47;2.90;;;1.70;;
14611;SDS011;7392;52.078;11.650;2023-05-13T10:15:18;4.20;;;1.83;;
14611;SDS011;7392;52.078;11.650;2023-05-13T10:17:46;1.70;;;1.53;;
14611;SDS011;7392;52.078;11.650;2023-05-13T10:20:15;1.55;;;1.45;;
14611;SDS011;7392;52.078;11.650;2023-05-13T10:22:43;2.75;;;1.63;;
14611;SDS011;7392;52.078;11.650;2023-05-13T10:25:12;3.00;;;1.90;;
14611;SDS011;7392;52.078;11.650;2023-05-13T10:27:40;2.45;;;1.83;;
14611;SDS011;7392;52.078;11.650;2023-05-13T10:30:09;2.00;;;1.70;;
14611;SDS011;7392;52.078;11.650;2023-05-13T10:32:37;3.75;;;2.20;;
14611;SDS011;7392;52.078;11.650;2023-05-13T10:35:20;1.90;;;1.60;;
14611;SDS011;7392;52.078;11.650;2023-05-13T10:38:09;2.30;;;1.77;;
14611;SDS011;7392;52.078;11.650;2023-05-13T10:43:37;2.08;;;1.60;;
14611;SDS011;7392;52.078;11.650;2023-05-13T10:46:07;2.50;;;1.65;;
14611;SDS011;7392;52.078;11.650;2023-05-13T10:48:41;1.70;;;1.52;;
14611;SDS011;7392;52.078;11.650;2023-05-13T10:51:13;3.00;;;1.90;;
14611;SDS011;7392;52.078;11.650;2023-05-13T10:53:45;3.13;;;2.22;;
14611;SDS011;7392;52.078;11.650;2023-05-13T10:56:13;3.47;;;2.10;;
14611;SDS011;7392;52.078;11.650;2023-05-13T10:58:52;2.33;;;1.73;;
14611;SDS011;7392;52.078;11.650;2023-05-13T11:01:25;2.40;;;2.20;;
14611;SDS011;7392;52.078;11.650;2023-05-13T11:03:59;1.75;;;1.60;;
14611;SDS011;7392;52.078;11.650;2023-05-13T11:06:28;1.85;;;1.63;;
14611;SDS011;7392;52.078;11.650;2023-05-13T11:09:00;2.53;;;1.70;;
14611;SDS011;7392;52.078;11.650;2023-05-13T11:11:32;3.28;;;2.08;;
14611;SDS011;7392;52.078;11.650;2023-05-13T11:14:15;2.88;;;1.92;;
14611;SDS011;7392;52.078;11.650;2023-05-13T11:16:47;3.70;;;2.10;;
14611;SDS011;7392;52.078;11.650;2023-05-13T11:19:19;2.10;;;1.90;;
14611;SDS011;7392;52.078;11.650;2023-05-13T11:21:49;2.70;;;2.33;;
14611;SDS011;7392;52.078;11.650;2023-05-13T11:24:19;3.03;;;2.10;;
14611;SDS011;7392;52.078;11.650;2023-05-13T11:26:49;3.70;;;2.10;;
14611;SDS011;7392;52.078;11.650;2023-05-13T11:29:29;3.50;;;2.05;;
14611;SDS011;7392;52.078;11.650;2023-05-13T11:31:58;3.20;;;2.10;;
14611;SDS011;7392;52.078;11.650;2023-05-13T11:34:26;2.22;;;1.95;;
14611;SDS011;7392;52.078;11.650;2023-05-13T11:36:56;2.67;;;2.25;;
14611;SDS011;7392;52.078;11.650;2023-05-13T11:39:32;4.63;;;1.65;;
14611;SDS011;7392;52.078;11.650;2023-05-13T11:42:00;3.10;;;2.00;;
14611;SDS011;7392;52.078;11.650;2023-05-13T11:44:34;4.93;;;2.00;;
14611;SDS011;7392;52.078;11.650;2023-05-13T11:47:03;2.10;;;1.90;;
14611;SDS011;7392;52.078;11.650;2023-05-13T11:49:37;2.25;;;1.85;;
14611;SDS011;7392;52.078;11.650;2023-05-13T11:52:07;3.03;;;2.13;;
14611;SDS011;7392;52.078;11.650;2023-05-13T11:54:39;2.15;;;1.92;;
14611;SDS011;7392;52.078;11.650;2023-05-13T11:57:19;2.17;;;1.92;;
14611;SDS011;7392;52.078;11.650;2023-05-13T11:59:51;3.97;;;2.15;;
14611;SDS011;7392;52.078;11.650;2023-05-13T12:02:20;2.20;;;2.00;;
14611;SDS011;7392;52.078;11.650;2023-05-13T12:04:49;2.03;;;1.75;;
14611;SDS011;7392;52.078;11.650;2023-05-13T12:07:20;3.95;;;1.85;;
14611;SDS011;7392;52.078;11.650;2023-05-13T12:09:48;2.63;;;1.75;;
14611;SDS011;7392;52.078;11.650;2023-05-13T12:12:17;2.67;;;2.03;;
14611;SDS011;7392;52.078;11.650;2023-05-13T12:14:45;3.47;;;2.15;;
14611;SDS011;7392;52.078;11.650;2023-05-13T12:17:16;2.97;;;1.70;;
14611;SDS011;7392;52.078;11.650;2023-05-13T12:20:04;1.60;;;1.50;;
14611;SDS011;7392;52.078;11.650;2023-05-13T12:22:37;4.18;;;2.00;;
14611;SDS011;7392;52.078;11.650;2023-05-13T12:25:36;3.92;;;2.13;;
14611;SDS011;7392;52.078;11.650;2023-05-13T12:28:06;3.90;;;2.10;;
14611;SDS011;7392;52.078;11.650;2023-05-13T12:30:35;3.70;;;1.92;;
14611;SDS011;7392;52.078;11.650;2023-05-13T12:33:06;3.75;;;2.15;;
14611;SDS011;7392;52.078;11.650;2023-05-13T12:35:39;4.45;;;2.17;;
14611;SDS011;7392;52.078;11.650;2023-05-13T12:38:07;2.70;;;1.88;;
14611;SDS011;7392;52.078;11.650;2023-05-13T12:40:35;3.30;;;1.80;;
14611;SDS011;7392;52.078;11.650;2023-05-13T12:43:04;1.70;;;1.60;;
14611;SDS011;7392;52.078;11.650;2023-05-13T12:45:32;2.88;;;1.80;;
14611;SDS011;7392;52.078;11.650;2023-05-13T12:48:04;2.15;;;1.92;;
14611;SDS011;7392;52.078;11.650;2023-05-13T12:50:33;2.88;;;1.83;;
14611;SDS011;7392;52.078;11.650;2023-05-13T12:53:00;3.33;;;2.00;;
14611;SDS011;7392;52.078;11.650;2023-05-13T12:55:28;2.22;;;1.67;;
14611;SDS011;7392;52.078;11.650;2023-05-13T12:57:58;1.60;;;1.50;;
14611;SDS011;7392;52.078;11.650;2023-05-13T13:00:27;2.75;;;1.60;;
14611;SDS011;7392;52.078;11.650;2023-05-13T13:02:56;1.45;;;1.30;;
14611;SDS011;7392;52.078;11.650;2023-05-13T13:05:25;3.53;;;1.42;;
14611;SDS011;7392;52.078;11.650;2023-05-13T13:07:53;3.25;;;1.95;;
14611;SDS011;7392;52.078;11.650;2023-05-13T13:10:21;1.70;;;1.60;;
14611;SDS011;7392;52.078;11.650;2023-05-13T13:12:48;2.03;;;1.60;;
14611;SDS011;7392;52.078;11.650;2023-05-13T13:15:16;3.60;;;1.63;;
14611;SDS011;7392;52.078;11.650;2023-05-13T13:17:44;1.75;;;1.58;;
14611;SDS011;7392;52.078;11.650;2023-05-13T13:20:12;2.40;;;1.80;;
14611;SDS011;7392;52.078;11.650;2023-05-13T13:22:41;2.05;;;1.60;;
14611;SDS011;7392;52.078;11.650;2023-05-13T13:25:19;2.00;;;1.45;;
14611;SDS011;7392;52.078;11.650;2023-05-13T13:28:00;6.25;;;1.88;;
14611;SDS011;7392;52.078;11.650;2023-05-13T13:30:28;1.65;;;1.55;;
14611;SDS011;7392;52.078;11.650;2023-05-13T13:32:56;1.70;;;1.60;;
14611;SDS011;7392;52.078;11.650;2023-05-13T13:35:25;1.70;;;1.60;;
14611;SDS011;7392;52.078;11.650;2023-05-13T13:37:59;1.50;;;1.40;;
14611;SDS011;7392;52.078;11.650;2023-05-13T13:40:37;1.90;;;1.70;;
14611;SDS011;7392;52.078;11.650;2023-05-13T13:43:06;1.55;;;1.40;;
14611;SDS011;7392;52.078;11.650;2023-05-13T13:45:35;1.83;;;1.70;;
14611;SDS011;7392;52.078;11.650;2023-05-13T13:48:03;1.63;;;1.52;;
14611;SDS011;7392;52.078;11.650;2023-05-13T13:50:32;2.00;;;1.80;;
14611;SDS011;7392;52.078;11.650;2023-05-13T13:53:01;2.70;;;2.03;;
14611;SDS011;7392;52.078;11.650;2023-05-13T13:55:28;1.98;;;1.77;;
14611;SDS011;7392;52.078;11.650;2023-05-13T13:57:56;2.15;;;1.90;;
14611;SDS011;7392;52.078;11.650;2023-05-13T14:00:23;3.30;;;1.98;;
14611;SDS011;7392;52.078;11.650;2023-05-13T14:02:51;2.30;;;1.88;;
14611;SDS011;7392;52.078;11.650;2023-05-13T14:05:19;2.10;;;1.80;;
14611;SDS011;7392;52.078;11.650;2023-05-13T14:07:47;2.15;;;1.95;;
14611;SDS011;7392;52.078;11.650;2023-05-13T14:10:20;2.25;;;2.03;;
14611;SDS011;7392;52.078;11.650;2023-05-13T14:12:48;3.58;;;2.50;;
14611;SDS011;7392;52.078;11.650;2023-05-13T14:15:16;4.78;;;3.63;;
14611;SDS011;7392;52.078;11.650;2023-05-13T14:17:43;4.20;;;3.63;;
14611;SDS011;7392;52.078;11.650;2023-05-13T14:20:11;3.67;;;3.10;;
14611;SDS011;7392;52.078;11.650;2023-05-13T14:22:39;3.33;;;2.75;;
14611;SDS011;7392;52.078;11.650;2023-05-13T14:25:07;2.50;;;2.30;;
14611;SDS011;7392;52.078;11.650;2023-05-13T14:27:37;3.00;;;2.60;;
14611;SDS011;7392;52.078;11.650;2023-05-13T14:30:06;2.83;;;2.53;;
14611;SDS011;7392;52.078;11.650;2023-05-13T14:32:34;3.67;;;2.85;;
14611;SDS011;7392;52.078;11.650;2023-05-13T14:35:03;4.90;;;3.15;;
14611;SDS011;7392;52.078;11.650;2023-05-13T14:37:31;2.40;;;2.20;;
14611;SDS011;7392;52.078;11.650;2023-05-13T14:39:58;3.42;;;2.95;;
14611;SDS011;7392;52.078;11.650;2023-05-13T14:42:26;3.70;;;2.97;;
14611;SDS011;7392;52.078;11.650;2023-05-13T14:44:55;2.42;;;2.22;;
14611;SDS011;7392;52.078;11.650;2023-05-13T14:47:22;2.85;;;2.40;;
14611;SDS011;7392;52.078;11.650;2023-05-13T14:49:50;3.10;;;2.80;;
14611;SDS011;7392;52.078;11.650;2023-05-13T14:52:17;2.40;;;2.20;;
14611;SDS011;7392;52.078;11.650;2023-05-13T14:54:45;3.35;;;2.35;;
14611;SDS011;7392;52.078;11.650;2023-05-13T14:57:12;2.10;;;1.90;;
14611;SDS011;7392;52.078;11.650;2023-05-13T14:59:40;3.00;;;1.95;;
14611;SDS011;7392;52.078;11.650;2023-05-13T15:02:09;2.35;;;1.80;;
14611;SDS011;7392;52.078;11.650;2023-05-13T15:04:39;2.38;;;1.65;;
14611;SDS011;7392;52.078;11.650;2023-05-13T15:07:06;3.30;;;1.77;;